sensor_id;sensor_type;location;lat;lon;timestamp;pressure;altitude;pressure_sealevel;temperature;humidity
6136;BME280;24008;42.664;23.372;2022-09-09T00:00:27;94904.28;;;20.25;64.49
6136;BME280;24008;42.664;23.372;2022-09-09T00:03:02;94986.31;;;20.80;64.69
6136;BME280;24008;42.664;23.372;2022-09-09T00:05:36;94981.94;;;20.80;64.51
6136;BME280;24008;42.664;23.372;2022-09-09T00:08:11;94989.91;;;20.79;64.62
6136;BME280;24008;42.664;23.372;2022-09-09T00:10:41;94991.50;;;20.80;64.76
6136;BME280;24008;42.664;23.372;2022-09-09T00:13:18;94957.91;;;20.65;64.71
6136;BME280;24008;42.664;23.372;2022-09-09T00:15:55;94804.09;;;19.63;64.63
6136;BME280;24008;42.664;23.372;2022-09-09T00:18:28;94964.72;;;20.66;65.25
6136;BME280;24008;42.664;23.372;2022-09-09T00:21:04;94984.72;;;20.79;64.91
6136;BME280;24008;42.664;23.372;2022-09-09T00:23:34;94956.13;;;20.59;64.84
6136;BME280;24008;42.664;23.372;2022-09-09T00:26:09;94975.13;;;20.79;64.93
6136;BME280;24008;42.664;23.372;2022-09-09T00:28:46;94972.94;;;20.76;64.65
6136;BME280;24008;42.664;23.372;2022-09-09T00:31:20;94963.53;;;20.69;64.89
6136;BME280;24008;42.664;23.372;2022-09-09T00:33:50;94681.31;;;18.68;65.60
6136;BME280;24008;42.664;23.372;2022-09-09T00:36:20;94948.66;;;20.36;65.98
6136;BME280;24008;42.664;23.372;2022-09-09T00:38:51;94983.28;;;20.50;65.82
6136;BME280;24008;42.664;23.372;2022-09-09T00:41:22;94959.47;;;20.53;65.73
6136;BME280;24008;42.664;23.372;2022-09-09T00:43:56;94862.88;;;19.97;65.73
6136;BME280;24008;42.664;23.372;2022-09-09T00:46:56;94937.91;;;20.46;65.72
6136;BME280;24008;42.664;23.372;2022-09-09T00:49:36;94936.41;;;20.24;66.19
6136;BME280;24008;42.664;23.372;2022-09-09T00:52:17;94937.59;;;20.14;66.25
6136;BME280;24008;42.664;23.372;2022-09-09T00:54:55;94837.03;;;19.34;66.57
6136;BME280;24008;42.664;23.372;2022-09-09T00:57:30;94929.16;;;19.99;66.63
6136;BME280;24008;42.664;23.372;2022-09-09T01:00:14;94938.09;;;19.97;66.38
6136;BME280;24008;42.664;23.372;2022-09-09T01:02:53;94839.63;;;19.28;66.24
6136;BME280;24008;42.664;23.372;2022-09-09T01:05:27;94940.75;;;20.03;65.96
6136;BME280;24008;42.664;23.372;2022-09-09T01:07:58;94907.34;;;19.87;65.91
6136;BME280;24008;42.664;23.372;2022-09-09T01:10:36;94934.88;;;19.88;65.67
6136;BME280;24008;42.664;23.372;2022-09-09T01:13:13;94948.06;;;19.93;65.70
6136;BME280;24008;42.664;23.372;2022-09-09T01:15:44;94946.94;;;20.02;65.61
6136;BME280;24008;42.664;23.372;2022-09-09T01:18:17;94943.53;;;20.08;65.40
6136;BME280;24008;42.664;23.372;2022-09-09T01:20:50;94947.38;;;20.12;65.10
6136;BME280;24008;42.664;23.372;2022-09-09T01:23:39;94808.41;;;19.08;65.23
6136;BME280;24008;42.664;23.372;2022-09-09T01:26:16;94736.03;;;18.65;65.28
6136;BME280;24008;42.664;23.372;2022-09-09T01:28:46;94884.03;;;19.53;65.27
6136;BME280;24008;42.664;23.372;2022-09-09T01:31:17;94823.13;;;19.01;65.77
6136;BME280;24008;42.664;23.372;2022-09-09T01:33:46;94934.56;;;19.63;66.38
6136;BME280;24008;42.664;23.372;2022-09-09T01:36:19;94939.38;;;19.38;67.40
6136;BME280;24008;42.664;23.372;2022-09-09T01:38:48;94900.06;;;19.35;67.37
6136;BME280;24008;42.664;23.372;2022-09-09T01:41:16;94956.19;;;19.77;67.06
6136;BME280;24008;42.664;23.372;2022-09-09T01:43:43;94957.25;;;19.89;66.95
6136;BME280;24008;42.664;23.372;2022-09-09T01:46:11;94952.69;;;19.98;66.77
6136;BME280;24008;42.664;23.372;2022-09-09T01:48:39;94950.50;;;20.01;66.35
6136;BME280;24008;42.664;23.372;2022-09-09T01:51:08;94954.91;;;20.07;65.90
6136;BME280;24008;42.664;23.372;2022-09-09T01:53:36;94768.03;;;18.86;66.00
6136;BME280;24008;42.664;23.372;2022-09-09T01:56:11;94965.28;;;20.07;65.48
6136;BME280;24008;42.664;23.372;2022-09-09T01:58:54;94901.22;;;19.60;65.69
6136;BME280;24008;42.664;23.372;2022-09-09T02:01:29;94964.09;;;20.03;66.18
6136;BME280;24008;42.664;23.372;2022-09-09T02:04:04;94964.91;;;20.04;65.97
6136;BME280;24008;42.664;23.372;2022-09-09T02:06:36;94967.28;;;20.05;66.40
6136;BME280;24008;42.664;23.372;2022-09-09T02:09:05;94964.91;;;20.04;66.29
6136;BME280;24008;42.664;23.372;2022-09-09T02:11:33;94950.13;;;20.04;66.31
6136;BME280;24008;42.664;23.372;2022-09-09T02:14:06;94956.91;;;20.05;66.31
6136;BME280;24008;42.664;23.372;2022-09-09T02:16:39;94955.31;;;20.04;66.11
6136;BME280;24008;42.664;23.372;2022-09-09T02:19:10;94868.00;;;19.42;66.08
6136;BME280;24008;42.664;23.372;2022-09-09T02:21:42;94935.72;;;19.95;66.24
6136;BME280;24008;42.664;23.372;2022-09-09T02:24:11;94847.03;;;19.03;66.82
6136;BME280;24008;42.664;23.372;2022-09-09T02:26:41;94890.88;;;19.32;67.05
6136;BME280;24008;42.664;23.372;2022-09-09T02:29:13;94933.19;;;19.67;66.73
6136;BME280;24008;42.664;23.372;2022-09-09T02:31:44;94946.00;;;19.75;66.89
6136;BME280;24008;42.664;23.372;2022-09-09T02:34:13;94938.41;;;19.81;66.76
6136;BME280;24008;42.664;23.372;2022-09-09T02:36:43;94950.03;;;19.85;66.32
6136;BME280;24008;42.664;23.372;2022-09-09T02:39:12;94117.31;;;14.56;66.39
6136;BME280;24008;42.664;23.372;2022-09-09T02:41:41;94950.81;;;19.85;66.75
6136;BME280;24008;42.664;23.372;2022-09-09T02:44:11;94860.28;;;19.21;66.55
6136;BME280;24008;42.664;23.372;2022-09-09T02:47:09;94851.50;;;19.16;66.69
6136;BME280;24008;42.664;23.372;2022-09-09T02:49:45;94962.81;;;19.86;66.44
6136;BME280;24008;42.664;23.372;2022-09-09T02:52:16;94824.25;;;18.92;66.68
6136;BME280;24008;42.664;23.372;2022-09-09T02:54:45;94966.38;;;19.78;66.88
6136;BME280;24008;42.664;23.372;2022-09-09T02:57:14;94919.13;;;19.49;67.29
6136;BME280;24008;42.664;23.372;2022-09-09T02:59:44;94957.78;;;19.78;67.38
6136;BME280;24008;42.664;23.372;2022-09-09T03:02:11;94928.66;;;19.48;67.54
6136;BME280;24008;42.664;23.372;2022-09-09T03:04:39;94955.50;;;19.68;67.62
6136;BME280;24008;42.664;23.372;2022-09-09T03:07:07;94954.75;;;19.68;67.76
6136;BME280;24008;42.664;23.372;2022-09-09T03:09:33;94954.13;;;19.66;67.72
6136;BME280;24008;42.664;23.372;2022-09-09T03:12:01;94954.25;;;19.58;68.14
6136;BME280;24008;42.664;23.372;2022-09-09T03:14:29;94960.22;;;19.52;68.45
6136;BME280;24008;42.664;23.372;2022-09-09T03:16:57;94915.38;;;19.30;68.40
6136;BME280;24008;42.664;23.372;2022-09-09T03:19:26;94857.31;;;18.90;68.42
6136;BME280;24008;42.664;23.372;2022-09-09T03:21:53;94793.03;;;18.44;68.34
6136;BME280;24008;42.664;23.372;2022-09-09T03:24:20;94908.94;;;19.19;68.68
6136;BME280;24008;42.664;23.372;2022-09-09T03:26:48;94748.78;;;18.11;68.26
6136;BME280;24008;42.664;23.372;2022-09-09T03:29:16;94955.06;;;19.58;68.59
6136;BME280;24008;42.664;23.372;2022-09-09T03:31:43;94842.50;;;18.84;68.63
6136;BME280;24008;42.664;23.372;2022-09-09T03:34:14;94941.34;;;19.36;68.77
6136;BME280;24008;42.664;23.372;2022-09-09T03:36:41;94914.97;;;19.26;68.44
6136;BME280;24008;42.664;23.372;2022-09-09T03:39:08;94859.09;;;18.89;68.34
6136;BME280;24008;42.664;23.372;2022-09-09T03:41:34;94969.31;;;19.48;68.39
6136;BME280;24008;42.664;23.372;2022-09-09T03:44:02;94967.25;;;19.36;68.59
6136;BME280;24008;42.664;23.372;2022-09-09T03:46:29;94755.59;;;17.97;69.17
6136;BME280;24008;42.664;23.372;2022-09-09T03:48:56;94956.94;;;19.15;69.91
6136;BME280;24008;42.664;23.372;2022-09-09T03:51:24;94960.97;;;19.18;69.95
6136;BME280;24008;42.664;23.372;2022-09-09T03:53:51;94837.38;;;18.41;70.15
6136;BME280;24008;42.664;23.372;2022-09-09T03:56:23;94961.75;;;19.18;70.31
6136;BME280;24008;42.664;23.372;2022-09-09T04:01:37;94961.19;;;19.23;70.58
6136;BME280;24008;42.664;23.372;2022-09-09T04:04:05;94972.16;;;19.25;70.35
6136;BME280;24008;42.664;23.372;2022-09-09T04:06:34;94975.19;;;19.28;70.38
6136;BME280;24008;42.664;23.372;2022-09-09T04:09:01;94977.78;;;19.28;70.23
6136;BME280;24008;42.664;23.372;2022-09-09T04:11:28;94975.38;;;19.27;70.63
6136;BME280;24008;42.664;23.372;2022-09-09T04:13:55;94838.00;;;18.43;70.66
6136;BME280;24008;42.664;23.372;2022-09-09T04:16:22;94969.22;;;19.34;70.85
6136;BME280;24008;42.664;23.372;2022-09-09T04:18:49;94874.78;;;18.81;71.02
6136;BME280;24008;42.664;23.372;2022-09-09T04:21:16;94931.88;;;19.22;70.63
6136;BME280;24008;42.664;23.372;2022-09-09T04:23:44;94964.41;;;19.53;70.09
6136;BME280;24008;42.664;23.372;2022-09-09T04:26:13;94965.03;;;19.55;69.69
6136;BME280;24008;42.664;23.372;2022-09-09T04:28:40;94962.44;;;19.55;69.64
6136;BME280;24008;42.664;23.372;2022-09-09T04:31:12;94920.75;;;19.28;69.54
6136;BME280;24008;42.664;23.372;2022-09-09T04:33:42;94963.47;;;19.60;69.41
6136;BME280;24008;42.664;23.372;2022-09-09T04:36:09;94880.56;;;19.11;69.27
6136;BME280;24008;42.664;23.372;2022-09-09T04:38:35;94971.88;;;19.69;69.22
6136;BME280;24008;42.664;23.372;2022-09-09T04:41:04;94974.72;;;19.74;68.95
6136;BME280;24008;42.664;23.372;2022-09-09T04:43:31;94948.50;;;19.56;68.98
6136;BME280;24008;42.664;23.372;2022-09-09T04:45:58;94891.78;;;19.18;68.50
6136;BME280;24008;42.664;23.372;2022-09-09T04:48:25;94984.94;;;19.82;68.57
6136;BME280;24008;42.664;23.372;2022-09-09T04:50:56;94943.16;;;19.64;68.27
6136;BME280;24008;42.664;23.372;2022-09-09T04:53:24;94967.38;;;19.84;67.86
6136;BME280;24008;42.664;23.372;2022-09-09T04:55:52;94963.78;;;19.85;67.56
6136;BME280;24008;42.664;23.372;2022-09-09T04:58:20;94906.00;;;19.57;67.30
6136;BME280;24008;42.664;23.372;2022-09-09T05:00:49;94913.63;;;19.65;67.74
6136;BME280;24008;42.664;23.372;2022-09-09T05:03:16;94955.72;;;20.01;67.59
6136;BME280;24008;42.664;23.372;2022-09-09T05:05:43;94964.91;;;20.10;67.29
6136;BME280;24008;42.664;23.372;2022-09-09T05:08:10;94955.19;;;20.26;67.72
6136;BME280;24008;42.664;23.372;2022-09-09T05:10:38;94919.13;;;20.37;67.32
6136;BME280;24008;42.664;23.372;2022-09-09T05:13:07;94940.38;;;20.94;66.66
6136;BME280;24008;42.664;23.372;2022-09-09T05:15:36;94786.47;;;20.19;63.26
6136;BME280;24008;42.664;23.372;2022-09-09T05:18:03;94940.16;;;21.61;63.46
6136;BME280;24008;42.664;23.372;2022-09-09T05:20:30;94732.16;;;20.70;61.13
6136;BME280;24008;42.664;23.372;2022-09-09T05:22:57;94961.22;;;22.62;59.99
6136;BME280;24008;42.664;23.372;2022-09-09T05:25:24;94802.09;;;22.07;57.28
6136;BME280;24008;42.664;23.372;2022-09-09T05:27:51;94936.66;;;23.32;56.23
6136;BME280;24008;42.664;23.372;2022-09-09T05:30:19;94967.13;;;23.63;55.20
6136;BME280;24008;42.664;23.372;2022-09-09T05:32:47;94940.91;;;23.95;54.65
6136;BME280;24008;42.664;23.372;2022-09-09T05:35:14;94938.66;;;24.35;53.12
6136;BME280;24008;42.664;23.372;2022-09-09T05:37:41;94942.66;;;24.79;52.80
6136;BME280;24008;42.664;23.372;2022-09-09T05:40:09;94945.50;;;25.31;50.66
6136;BME280;24008;42.664;23.372;2022-09-09T05:42:37;94943.03;;;25.82;50.45
6136;BME280;24008;42.664;23.372;2022-09-09T05:45:05;94943.94;;;26.40;49.60
6136;BME280;24008;42.664;23.372;2022-09-09T05:47:33;94747.28;;;25.61;47.15
6136;BME280;24008;42.664;23.372;2022-09-09T05:50:01;94910.91;;;27.17;46.51
6136;BME280;24008;42.664;23.372;2022-09-09T05:52:28;94954.97;;;27.82;44.98
6136;BME280;24008;42.664;23.372;2022-09-09T05:54:55;94865.53;;;27.72;43.31
6136;BME280;24008;42.664;23.372;2022-09-09T05:57:22;94836.44;;;28.01;40.79
6136;BME280;24008;42.664;23.372;2022-09-09T05:59:49;94894.72;;;28.68;40.71
6136;BME280;24008;42.664;23.372;2022-09-09T06:02:16;94927.56;;;29.24;40.72
6136;BME280;24008;42.664;23.372;2022-09-09T06:04:43;94929.25;;;29.72;38.88
6136;BME280;24008;42.664;23.372;2022-09-09T06:07:11;94966.25;;;30.40;38.52
6136;BME280;24008;42.664;23.372;2022-09-09T06:09:39;94968.50;;;30.78;38.16
6136;BME280;24008;42.664;23.372;2022-09-09T06:12:07;94978.06;;;31.20;36.63
6136;BME280;24008;42.664;23.372;2022-09-09T06:14:34;94966.44;;;31.62;35.83
6136;BME280;24008;42.664;23.372;2022-09-09T06:17:03;94917.28;;;31.71;34.52
6136;BME280;24008;42.664;23.372;2022-09-09T06:19:30;94638.69;;;30.28;34.32
6136;BME280;24008;42.664;23.372;2022-09-09T06:21:57;94810.41;;;31.92;33.16
6136;BME280;24008;42.664;23.372;2022-09-09T06:24:25;94886.22;;;32.71;32.31
6136;BME280;24008;42.664;23.372;2022-09-09T06:26:52;94416.03;;;29.80;32.25
6136;BME280;24008;42.664;23.372;2022-09-09T06:29:20;94793.38;;;32.91;31.51
6136;BME280;24008;42.664;23.372;2022-09-09T06:31:46;94694.59;;;32.62;31.14
6136;BME280;24008;42.664;23.372;2022-09-09T06:34:14;94653.09;;;32.86;30.54
6136;BME280;24008;42.664;23.372;2022-09-09T06:36:42;94745.44;;;33.88;29.26
6136;BME280;24008;42.664;23.372;2022-09-09T06:39:11;94250.78;;;31.26;28.75
6136;BME280;24008;42.664;23.372;2022-09-09T06:41:41;94941.47;;;36.19;27.86
6136;BME280;24008;42.664;23.372;2022-09-09T06:44:08;94923.44;;;36.29;27.23
6136;BME280;24008;42.664;23.372;2022-09-09T06:46:37;94840.16;;;36.01;26.17
6136;BME280;24008;42.664;23.372;2022-09-09T06:49:05;94958.38;;;37.13;26.04
6136;BME280;24008;42.664;23.372;2022-09-09T06:51:33;94974.06;;;37.60;25.76
6136;BME280;24008;42.664;23.372;2022-09-09T06:54:01;94473.09;;;34.71;25.55
6136;BME280;24008;42.664;23.372;2022-09-09T06:56:31;94958.47;;;38.46;24.71
6136;BME280;24008;42.664;23.372;2022-09-09T06:59:01;94939.69;;;38.85;24.44
6136;BME280;24008;42.664;23.372;2022-09-09T07:01:31;94670.31;;;37.49;23.57
6136;BME280;24008;42.664;23.372;2022-09-09T07:04:01;94731.59;;;38.41;23.33
6136;BME280;24008;42.664;23.372;2022-09-09T07:06:31;94825.16;;;39.31;22.38
6136;BME280;24008;42.664;23.372;2022-09-09T07:09:00;94989.03;;;40.38;22.12
6136;BME280;24008;42.664;23.372;2022-09-09T07:11:31;94968.00;;;40.11;22.86
6136;BME280;24008;42.664;23.372;2022-09-09T07:14:09;94988.38;;;40.41;22.80
6136;BME280;24008;42.664;23.372;2022-09-09T07:16:38;94978.78;;;40.70;22.49
6136;BME280;24008;42.664;23.372;2022-09-09T07:19:05;94736.88;;;39.48;21.67
6136;BME280;24008;42.664;23.372;2022-09-09T07:21:32;94967.81;;;41.04;21.07
6136;BME280;24008;42.664;23.372;2022-09-09T07:24:00;94892.03;;;40.53;21.41
6136;BME280;24008;42.664;23.372;2022-09-09T07:26:29;94732.25;;;39.86;20.96
6136;BME280;24008;42.664;23.372;2022-09-09T07:28:56;94971.19;;;41.55;20.22
6136;BME280;24008;42.664;23.372;2022-09-09T07:31:26;94953.44;;;41.29;21.36
6136;BME280;24008;42.664;23.372;2022-09-09T07:33:56;94952.59;;;41.50;20.73
6136;BME280;24008;42.664;23.372;2022-09-09T07:36:26;94971.09;;;41.96;20.90
6136;BME280;24008;42.664;23.372;2022-09-09T07:38:54;94974.38;;;42.26;19.89
6136;BME280;24008;42.664;23.372;2022-09-09T07:41:24;94764.41;;;41.15;19.81
6136;BME280;24008;42.664;23.372;2022-09-09T07:43:52;94978.50;;;42.85;18.81
6136;BME280;24008;42.664;23.372;2022-09-09T07:46:21;94912.63;;;42.66;18.90
6136;BME280;24008;42.664;23.372;2022-09-09T07:48:51;94665.69;;;41.45;19.00
6136;BME280;24008;42.664;23.372;2022-09-09T07:51:21;94976.03;;;44.03;18.45
6136;BME280;24008;42.664;23.372;2022-09-09T07:53:53;94691.34;;;42.62;18.83
6136;BME280;24008;42.664;23.372;2022-09-09T07:56:20;94705.72;;;42.98;18.00
6136;BME280;24008;42.664;23.372;2022-09-09T07:58:49;94977.34;;;45.11;17.02
6136;BME280;24008;42.664;23.372;2022-09-09T08:01:18;94892.44;;;44.50;16.54
6136;BME280;24008;42.664;23.372;2022-09-09T08:03:46;94882.22;;;44.40;16.99
6136;BME280;24008;42.664;23.372;2022-09-09T08:06:15;94876.91;;;44.44;17.02
6136;BME280;24008;42.664;23.372;2022-09-09T08:08:42;94974.59;;;44.57;16.40
6136;BME280;24008;42.664;23.372;2022-09-09T08:11:13;94974.94;;;43.48;17.59
6136;BME280;24008;42.664;23.372;2022-09-09T08:13:41;94613.88;;;40.02;18.83
6136;BME280;24008;42.664;23.372;2022-09-09T08:16:10;94976.19;;;41.23;20.26
6136;BME280;24008;42.664;23.372;2022-09-09T08:18:38;94976.91;;;40.61;21.56
6136;BME280;24008;42.664;23.372;2022-09-09T08:21:06;94890.81;;;39.75;20.57
6136;BME280;24008;42.664;23.372;2022-09-09T08:23:36;94831.47;;;39.35;21.45
6136;BME280;24008;42.664;23.372;2022-09-09T08:26:04;94883.31;;;40.06;21.03
6136;BME280;24008;42.664;23.372;2022-09-09T08:28:31;94961.13;;;40.69;20.48
6136;BME280;24008;42.664;23.372;2022-09-09T08:31:08;94941.50;;;39.88;21.12
6136;BME280;24008;42.664;23.372;2022-09-09T08:33:36;94908.09;;;39.22;21.65
6136;BME280;24008;42.664;23.372;2022-09-09T08:36:09;94969.84;;;38.77;22.03
6136;BME280;24008;42.664;23.372;2022-09-09T08:38:38;94669.66;;;35.76;22.83
6136;BME280;24008;42.664;23.372;2022-09-09T08:41:27;94964.53;;;36.23;25.06
6136;BME280;24008;42.664;23.372;2022-09-09T08:44:03;94949.25;;;35.23;25.80
6136;BME280;24008;42.664;23.372;2022-09-09T08:46:42;94961.09;;;34.31;27.08
6136;BME280;24008;42.664;23.372;2022-09-09T08:49:43;94895.75;;;33.40;29.01
6136;BME280;24008;42.664;23.372;2022-09-09T08:52:18;94955.75;;;33.26;29.08
6136;BME280;24008;42.664;23.372;2022-09-09T08:54:47;94943.44;;;32.57;30.19
6136;BME280;24008;42.664;23.372;2022-09-09T08:57:18;94950.88;;;32.50;30.61
6136;BME280;24008;42.664;23.372;2022-09-09T08:59:46;94943.50;;;32.47;31.07
6136;BME280;24008;42.664;23.372;2022-09-09T09:02:18;94936.88;;;32.44;30.89
6136;BME280;24008;42.664;23.372;2022-09-09T09:04:58;94942.47;;;32.38;31.00
6136;BME280;24008;42.664;23.372;2022-09-09T09:07:46;94792.66;;;31.33;31.90
6136;BME280;24008;42.664;23.372;2022-09-09T09:10:31;94938.84;;;32.24;32.28
6136;BME280;24008;42.664;23.372;2022-09-09T09:13:02;94764.19;;;31.00;32.21
6136;BME280;24008;42.664;23.372;2022-09-09T09:15:33;94938.88;;;32.08;31.87
6136;BME280;24008;42.664;23.372;2022-09-09T09:18:05;94873.47;;;31.39;32.05
6136;BME280;24008;42.664;23.372;2022-09-09T09:20:41;94731.50;;;30.45;33.07
6136;BME280;24008;42.664;23.372;2022-09-09T09:23:16;94815.38;;;31.04;33.24
6136;BME280;24008;42.664;23.372;2022-09-09T09:25:59;94934.75;;;31.72;32.85
6136;BME280;24008;42.664;23.372;2022-09-09T09:28:30;94905.19;;;31.39;33.61
6136;BME280;24008;42.664;23.372;2022-09-09T09:31:03;94542.66;;;29.02;33.16
6136;BME280;24008;42.664;23.372;2022-09-09T09:33:35;94568.72;;;29.03;33.69
6136;BME280;24008;42.664;23.372;2022-09-09T09:36:06;94531.97;;;28.56;33.12
6136;BME280;24008;42.664;23.372;2022-09-09T09:38:51;94400.63;;;27.62;33.74
6136;BME280;24008;42.664;23.372;2022-09-09T09:41:31;94152.09;;;25.62;33.68
6136;BME280;24008;42.664;23.372;2022-09-09T09:43:58;94940.00;;;30.91;33.91
6136;BME280;24008;42.664;23.372;2022-09-09T09:46:26;94924.13;;;30.65;34.21
6136;BME280;24008;42.664;23.372;2022-09-09T09:49:03;94575.63;;;28.57;34.42
6136;BME280;24008;42.664;23.372;2022-09-09T09:51:32;94828.78;;;30.16;34.28
6136;BME280;24008;42.664;23.372;2022-09-09T09:54:12;94749.56;;;29.76;34.07
6136;BME280;24008;42.664;23.372;2022-09-09T09:56:45;94910.16;;;30.85;34.62
6136;BME280;24008;42.664;23.372;2022-09-09T09:59:31;94904.88;;;30.85;34.66
6136;BME280;24008;42.664;23.372;2022-09-09T10:02:12;94901.44;;;30.74;34.42
6136;BME280;24008;42.664;23.372;2022-09-09T10:04:40;94878.53;;;29.97;34.88
6136;BME280;24008;42.664;23.372;2022-09-09T10:07:18;94909.78;;;30.36;35.14
6136;BME280;24008;42.664;23.372;2022-09-09T10:09:50;94506.22;;;27.64;35.54
6136;BME280;24008;42.664;23.372;2022-09-09T10:12:31;94381.19;;;26.89;36.00
6136;BME280;24008;42.664;23.372;2022-09-09T10:15:07;94854.00;;;29.97;35.67
6136;BME280;24008;42.664;23.372;2022-09-09T10:17:49;94883.88;;;30.23;36.27
6136;BME280;24008;42.664;23.372;2022-09-09T10:20:30;94738.81;;;29.20;35.78
6136;BME280;24008;42.664;23.372;2022-09-09T10:23:09;94926.38;;;30.26;36.17
6136;BME280;24008;42.664;23.372;2022-09-09T10:25:57;94681.03;;;28.51;36.85
6136;BME280;24008;42.664;23.372;2022-09-09T10:28:53;94925.75;;;30.04;36.83
6136;BME280;24008;42.664;23.372;2022-09-09T10:31:29;94920.13;;;29.90;37.08
6136;BME280;24008;42.664;23.372;2022-09-09T10:34:05;94864.56;;;29.45;38.14
6136;BME280;24008;42.664;23.372;2022-09-09T10:36:40;94923.72;;;29.74;38.50
6136;BME280;24008;42.664;23.372;2022-09-09T10:39:21;94925.31;;;29.70;38.57
6136;BME280;24008;42.664;23.372;2022-09-09T10:41:59;94787.78;;;28.79;38.30
6136;BME280;24008;42.664;23.372;2022-09-09T10:44:54;94922.56;;;29.60;38.84
6136;BME280;24008;42.664;23.372;2022-09-09T10:47:50;94899.22;;;29.31;38.58
6136;BME280;24008;42.664;23.372;2022-09-09T10:50:36;94931.44;;;29.44;38.23
6136;BME280;24008;42.664;23.372;2022-09-09T10:53:14;94913.41;;;29.30;39.05
6136;BME280;24008;42.664;23.372;2022-09-09T10:55:44;94764.69;;;28.27;39.36
6136;BME280;24008;42.664;23.372;2022-09-09T10:58:20;94928.19;;;29.31;39.75
6136;BME280;24008;42.664;23.372;2022-09-09T11:00:53;94292.25;;;25.31;40.52
6136;BME280;24008;42.664;23.372;2022-09-09T11:03:24;94552.50;;;26.95;40.56
6136;BME280;24008;42.664;23.372;2022-09-09T11:05:56;94913.66;;;29.29;40.99
6136;BME280;24008;42.664;23.372;2022-09-09T11:08:26;94923.66;;;29.27;41.04
6136;BME280;24008;42.664;23.372;2022-09-09T11:10:58;94923.88;;;29.20;40.47
6136;BME280;24008;42.664;23.372;2022-09-09T11:13:36;94792.56;;;28.28;40.68
6136;BME280;24008;42.664;23.372;2022-09-09T11:16:19;94925.34;;;29.06;40.83
6136;BME280;24008;42.664;23.372;2022-09-09T11:18:49;94925.84;;;29.03;40.99
6136;BME280;24008;42.664;23.372;2022-09-09T11:21:21;94921.06;;;29.00;41.40
6136;BME280;24008;42.664;23.372;2022-09-09T11:23:54;93966.84;;;22.46;41.56
6136;BME280;24008;42.664;23.372;2022-09-09T11:26:29;94914.75;;;29.01;42.08
6136;BME280;24008;42.664;23.372;2022-09-09T11:29:09;94903.75;;;29.04;42.25
6136;BME280;24008;42.664;23.372;2022-09-09T11:31:51;94645.34;;;27.37;41.38
6136;BME280;24008;42.664;23.372;2022-09-09T11:34:39;94896.63;;;29.05;41.31
6136;BME280;24008;42.664;23.372;2022-09-09T11:37:28;94460.66;;;26.19;41.12
6136;BME280;24008;42.664;23.372;2022-09-09T11:40:17;93788.41;;;21.98;41.13
6136;BME280;24008;42.664;23.372;2022-09-09T11:42:45;94671.09;;;27.40;40.93
6136;BME280;24008;42.664;23.372;2022-09-09T11:45:23;94878.44;;;28.98;41.08
6136;BME280;24008;42.664;23.372;2022-09-09T11:47:56;94875.22;;;28.91;41.03
6136;BME280;24008;42.664;23.372;2022-09-09T11:50:29;94571.50;;;27.02;41.49
6136;BME280;24008;42.664;23.372;2022-09-09T11:53:14;94721.09;;;27.99;41.50
6136;BME280;24008;42.664;23.372;2022-09-09T11:55:42;94806.56;;;28.65;41.54
6136;BME280;24008;42.664;23.372;2022-09-09T11:58:17;94832.78;;;28.82;40.91
6136;BME280;24008;42.664;23.372;2022-09-09T12:00:47;94366.13;;;25.60;40.47
6136;BME280;24008;42.664;23.372;2022-09-09T12:03:39;93936.94;;;22.20;41.41
6136;BME280;24008;42.664;23.372;2022-09-09T12:06:15;94701.19;;;27.33;41.71
6136;BME280;24008;42.664;23.372;2022-09-09T12:08:47;94849.84;;;28.48;41.77
6136;BME280;24008;42.664;23.372;2022-09-09T12:11:24;94810.31;;;28.38;41.93
6136;BME280;24008;42.664;23.372;2022-09-09T12:13:53;94800.13;;;28.46;41.07
6136;BME280;24008;42.664;23.372;2022-09-09T12:16:29;94841.41;;;28.78;41.03
6136;BME280;24008;42.664;23.372;2022-09-09T12:19:14;94834.38;;;28.83;40.83
6136;BME280;24008;42.664;23.372;2022-09-09T12:21:48;94641.19;;;27.68;40.81
6136;BME280;24008;42.664;23.372;2022-09-09T12:24:23;94631.41;;;27.58;41.57
6136;BME280;24008;42.664;23.372;2022-09-09T12:26:59;94819.06;;;28.48;40.53
6136;BME280;24008;42.664;23.372;2022-09-09T12:29:36;94484.84;;;26.48;41.02
6136;BME280;24008;42.664;23.372;2022-09-09T12:32:10;94468.28;;;26.42;41.13
6136;BME280;24008;42.664;23.372;2022-09-09T12:34:41;93861.47;;;22.37;41.69
6136;BME280;24008;42.664;23.372;2022-09-09T12:37:15;94806.34;;;28.67;41.60
6136;BME280;24008;42.664;23.372;2022-09-09T12:39:47;94635.66;;;27.65;41.33
6136;BME280;24008;42.664;23.372;2022-09-09T12:42:18;94729.84;;;28.10;41.57
6136;BME280;24008;42.664;23.372;2022-09-09T12:44:58;93919.66;;;22.87;41.44
6136;BME280;24008;42.664;23.372;2022-09-09T12:47:33;94792.19;;;28.73;41.71
6136;BME280;24008;42.664;23.372;2022-09-09T12:50:15;94511.34;;;26.95;41.85
6136;BME280;24008;42.664;23.372;2022-09-09T12:52:43;94801.22;;;28.82;41.85
6136;BME280;24008;42.664;23.372;2022-09-09T12:55:17;94758.84;;;28.47;42.13
6136;BME280;24008;42.664;23.372;2022-09-09T12:57:44;94795.97;;;28.82;42.23
6136;BME280;24008;42.664;23.372;2022-09-09T13:00:17;94668.00;;;27.97;41.98
6136;BME280;24008;42.664;23.372;2022-09-09T13:02:55;94786.50;;;28.86;42.27
6136;BME280;24008;42.664;23.372;2022-09-09T13:05:25;94690.72;;;28.13;42.47
6136;BME280;24008;42.664;23.372;2022-09-09T13:08:00;94754.03;;;28.71;41.68
6136;BME280;24008;42.664;23.372;2022-09-09T13:10:30;94775.41;;;28.79;41.67
6136;BME280;24008;42.664;23.372;2022-09-09T13:12:59;94410.53;;;26.32;42.40
6136;BME280;24008;42.664;23.372;2022-09-09T13:15:28;94772.81;;;28.52;42.17
6136;BME280;24008;42.664;23.372;2022-09-09T13:17:57;94776.22;;;28.21;43.05
6136;BME280;24008;42.664;23.372;2022-09-09T13:20:28;94770.88;;;28.38;43.07
6136;BME280;24008;42.664;23.372;2022-09-09T13:22:56;94781.72;;;28.46;43.19
6136;BME280;24008;42.664;23.372;2022-09-09T13:25:25;94603.91;;;27.44;42.81
6136;BME280;24008;42.664;23.372;2022-09-09T13:27:55;94330.94;;;25.12;43.03